Time;durP1;ratioP1;P1;durP2;ratioP2;P2;SDS_P1;SDS_P2;PMS_P1;PMS_P2;Temp;Humidity;BMP_temperature;BMP_pressure;BME280_temperature;BME280_humidity;BME280_pressure;Samples;Min_cycle;Max_cycle;Signal;HPM_P1;HPM_P2
2021/06/24 00:01:57;;;;;;;22.95;6.55;;;27.20;99.90;;;;;;5062235;28;20024;-75
2021/06/24 00:04:24;;;;;;;19.48;6.40;;;27.10;99.90;;;;;;5060939;28;20517;-74
2021/06/24 00:06:50;;;;;;;22.70;6.78;;;27.10;99.90;;;;;;5060933;28;20021;-73
2021/06/24 00:09:16;;;;;;;17.90;6.40;;;27.10;99.90;;;;;;5061712;28;20095;-73
2021/06/24 00:11:42;;;;;;;20.88;6.50;;;27.10;99.90;;;;;;5060220;28;20126;-75
2021/06/24 00:14:08;;;;;;;16.63;6.40;;;27.20;99.90;;;;;;5061311;28;20508;-75
2021/06/24 00:16:34;;;;;;;20.35;6.85;;;27.10;99.90;;;;;;5063159;28;20151;-73
2021/06/24 00:19:00;;;;;;;24.10;6.97;;;27.00;99.90;;;;;;5060963;28;20021;-74
2021/06/24 00:21:26;;;;;;;29.23;7.18;;;27.00;99.90;;;;;;5060572;28;20017;-74
2021/06/24 00:23:52;;;;;;;20.75;7.10;;;27.00;99.90;;;;;;5060514;28;20094;-73
2021/06/24 00:26:18;;;;;;;20.65;7.10;;;27.00;99.90;;;;;;5058846;28;20017;-72
2021/06/24 00:28:44;;;;;;;20.88;7.00;;;26.90;99.90;;;;;;5059994;28;20057;-72
2021/06/24 00:31:10;;;;;;;23.90;7.47;;;26.90;99.90;;;;;;5059916;28;20513;-74
2021/06/24 00:33:36;;;;;;;26.75;7.35;;;26.90;99.90;;;;;;5059639;28;20028;-73
2021/06/24 00:36:02;;;;;;;25.77;7.18;;;26.90;99.90;;;;;;5060800;28;20029;-73
2021/06/24 00:38:29;;;;;;;21.52;6.70;;;26.80;99.90;;;;;;5061151;28;20036;-73
2021/06/24 00:40:55;;;;;;;20.92;6.20;;;26.80;99.90;;;;;;5059339;28;20051;-75
2021/06/24 00:43:23;;;;;;;30.33;7.28;;;26.80;99.90;;;;;;5059275;28;20049;-72
2021/06/24 00:45:49;;;;;;;24.38;7.15;;;26.80;99.90;;;;;;5059597;28;20059;-72
2021/06/24 00:48:16;;;;;;;25.15;7.25;;;26.70;99.90;;;;;;5061051;28;20041;-72
2021/06/24 00:50:46;;;;;;;18.40;6.47;;;26.70;99.90;;;;;;5060691;28;20036;-73
2021/06/24 00:53:13;;;;;;;18.17;6.63;;;26.70;99.90;;;;;;5060181;28;20098;-72
2021/06/24 00:55:44;;;;;;;21.15;7.00;;;26.60;99.90;;;;;;5060652;28;20014;-73
2021/06/24 00:58:13;;;;;;;19.15;6.40;;;26.70;99.90;;;;;;5061101;28;20478;-74
2021/06/24 01:00:41;;;;;;;18.33;6.85;;;26.70;99.90;;;;;;5061187;28;20017;-73
2021/06/24 01:03:08;;;;;;;16.35;6.22;;;26.70;99.90;;;;;;5056263;28;20367;-73
2021/06/24 01:05:36;;;;;;;17.92;7.03;;;26.60;99.90;;;;;;5060350;28;20486;-76
2021/06/24 01:08:04;;;;;;;19.65;6.72;;;26.60;99.90;;;;;;5059647;28;20538;-74
2021/06/24 01:10:30;;;;;;;23.40;7.25;;;26.40;99.90;;;;;;5057814;28;20029;-72
2021/06/24 01:12:56;;;;;;;21.52;6.82;;;26.30;99.90;;;;;;5060691;28;20016;-73
2021/06/24 01:15:23;;;;;;;21.98;6.95;;;26.20;99.90;;;;;;5060107;28;20032;-74
2021/06/24 01:17:53;;;;;;;21.98;7.50;;;26.20;99.90;;;;;;5060114;28;20021;-74
2021/06/24 01:20:24;;;;;;;21.50;6.78;;;26.10;99.90;;;;;;5059312;28;20025;-75
2021/06/24 01:22:50;;;;;;;24.27;7.00;;;26.10;99.90;;;;;;5061607;28;20083;-75
2021/06/24 01:25:16;;;;;;;27.65;8.15;;;26.20;99.90;;;;;;5059447;28;20060;-75
2021/06/24 01:27:42;;;;;;;18.60;7.50;;;26.20;99.90;;;;;;5060393;28;20012;-73
2021/06/24 01:30:09;;;;;;;23.15;7.90;;;26.10;99.90;;;;;;5060618;28;20024;-73
2021/06/24 01:32:35;;;;;;;28.48;8.18;;;26.10;99.90;;;;;;5059442;28;20048;-75
2021/06/24 01:35:03;;;;;;;22.23;7.78;;;26.10;99.90;;;;;;5060173;28;20051;-75
2021/06/24 01:37:29;;;;;;;22.25;7.45;;;26.10;99.90;;;;;;5059399;28;20363;-72
2021/06/24 01:39:55;;;;;;;21.98;8.20;;;26.10;99.90;;;;;;5060042;28;20021;-74
2021/06/24 01:42:21;;;;;;;23.13;8.35;;;26.00;99.90;;;;;;5060257;28;20018;-72
2021/06/24 01:44:47;;;;;;;19.05;7.55;;;25.90;99.90;;;;;;5059891;28;20053;-72
2021/06/24 01:47:13;;;;;;;20.48;7.68;;;25.90;99.90;;;;;;5060288;28;20036;-72
2021/06/24 01:49:39;;;;;;;19.15;7.68;;;25.90;99.90;;;;;;5061422;28;20099;-75
2021/06/24 01:52:06;;;;;;;20.10;7.38;;;25.90;99.90;;;;;;5060813;28;20027;-75
2021/06/24 01:54:32;;;;;;;24.85;7.82;;;25.90;99.90;;;;;;5059343;28;20079;-74
2021/06/24 01:56:58;;;;;;;24.75;8.20;;;25.90;99.90;;;;;;5060125;28;20095;-73
2021/06/24 01:59:36;;;;;;;29.98;8.40;;;26.00;99.90;;;;;;5059324;28;20490;-74
2021/06/24 02:02:03;;;;;;;24.15;8.07;;;25.90;99.90;;;;;;5058779;28;20032;-74
2021/06/24 02:04:29;;;;;;;19.85;7.88;;;25.90;99.90;;;;;;5059237;28;20013;-75
2021/06/24 02:06:55;;;;;;;24.23;8.85;;;25.80;99.90;;;;;;5059468;28;20005;-76
2021/06/24 02:09:21;;;;;;;25.10;9.63;;;25.90;99.90;;;;;;5060377;28;20032;-76
2021/06/24 02:11:47;;;;;;;23.65;9.52;;;25.90;99.90;;;;;;5059181;28;20025;-73
2021/06/24 02:14:13;;;;;;;26.00;8.60;;;25.80;99.90;;;;;;5059415;28;20063;-73
2021/06/24 02:16:39;;;;;;;27.52;9.90;;;25.80;99.90;;;;;;5059280;28;20033;-73
2021/06/24 02:19:05;;;;;;;36.08;9.65;;;25.80;99.90;;;;;;5058360;28;20005;-72
2021/06/24 02:21:31;;;;;;;24.38;9.23;;;25.80;99.90;;;;;;5060909;28;20417;-74
2021/06/24 02:23:57;;;;;;;27.02;9.77;;;25.70;99.90;;;;;;5062781;28;20021;-73
2021/06/24 02:26:24;;;;;;;29.73;9.30;;;25.60;99.90;;;;;;5062851;28;20069;-73
2021/06/24 02:28:50;;;;;;;25.30;9.93;;;25.60;99.90;;;;;;5063233;28;20059;-74
2021/06/24 02:31:16;;;;;;;27.45;9.45;;;25.60;99.90;;;;;;5061580;28;20379;-74
2021/06/24 02:33:44;;;;;;;29.38;10.07;;;25.70;99.90;;;;;;5063711;28;20487;-74
2021/06/24 02:36:10;;;;;;;26.92;10.50;;;25.70;99.90;;;;;;5063579;28;20005;-74
2021/06/24 02:38:36;;;;;;;23.05;9.15;;;25.70;99.90;;;;;;5063103;28;20017;-75
2021/06/24 02:41:02;;;;;;;25.98;9.90;;;25.80;99.90;;;;;;5062712;28;20020;-73
2021/06/24 02:43:28;;;;;;;25.95;8.65;;;25.70;99.90;;;;;;5061702;28;20056;-74
2021/06/24 02:45:54;;;;;;;30.92;10.18;;;25.80;99.90;;;;;;5062440;28;20057;-73
2021/06/24 02:48:20;;;;;;;24.25;9.13;;;25.80;99.90;;;;;;5062347;28;20095;-73
2021/06/24 02:50:46;;;;;;;28.83;9.70;;;25.70;99.90;;;;;;5061941;28;20021;-74
2021/06/24 02:53:12;;;;;;;32.92;9.70;;;25.60;99.90;;;;;;5062985;28;20068;-75
2021/06/24 02:55:40;;;;;;;27.92;9.73;;;25.60;99.90;;;;;;5062890;28;20025;-74
2021/06/24 02:58:07;;;;;;;23.95;9.88;;;25.70;99.90;;;;;;5062168;28;20067;-73
2021/06/24 03:00:32;;;;;;;25.38;9.93;;;25.60;99.90;;;;;;5061465;28;20108;-73
2021/06/24 03:02:58;;;;;;;23.75;10.00;;;25.60;99.90;;;;;;5062773;28;20080;-72
2021/06/24 03:05:25;;;;;;;35.15;10.32;;;25.60;99.90;;;;;;5061890;28;20573;-74
2021/06/24 03:07:51;;;;;;;32.72;10.35;;;25.60;99.90;;;;;;5059939;28;20113;-73
2021/06/24 03:10:22;;;;;;;29.15;10.80;;;25.60;99.90;;;;;;5060774;28;20032;-73
2021/06/24 03:12:48;;;;;;;30.05;10.50;;;25.60;99.90;;;;;;5059319;28;20001;-75
2021/06/24 03:15:15;;;;;;;30.92;10.38;;;25.50;99.90;;;;;;5061116;28;20021;-74
2021/06/24 03:17:41;;;;;;;32.28;10.65;;;25.50;99.90;;;;;;5061476;28;20096;-75
2021/06/24 03:20:09;;;;;;;24.50;9.70;;;25.70;99.90;;;;;;5062090;28;20021;-72
2021/06/24 03:22:36;;;;;;;23.52;9.90;;;25.80;99.90;;;;;;5062301;28;20025;-76
2021/06/24 03:25:07;;;;;;;21.90;9.02;;;25.80;99.90;;;;;;5062011;28;20061;-72
2021/06/24 03:27:32;;;;;;;23.70;9.15;;;25.80;99.90;;;;;;5063154;28;20029;-73
2021/06/24 03:29:59;;;;;;;28.70;9.23;;;25.90;99.90;;;;;;5060919;28;20017;-74
2021/06/24 03:32:25;;;;;;;21.98;9.07;;;25.80;99.90;;;;;;5059756;28;20075;-75
2021/06/24 03:34:51;;;;;;;23.33;9.63;;;25.90;99.90;;;;;;5060801;28;20021;-75
2021/06/24 03:37:17;;;;;;;26.25;10.73;;;26.00;99.90;;;;;;5062214;28;20024;-74
2021/06/24 03:39:45;;;;;;;26.45;10.35;;;25.80;99.90;;;;;;5061175;28;20025;-74
2021/06/24 03:42:11;;;;;;;25.38;10.23;;;25.60;99.90;;;;;;5063085;28;20059;-73
2021/06/24 03:44:37;;;;;;;27.38;10.90;;;25.50;99.90;;;;;;5060902;28;20048;-75
2021/06/24 03:47:03;;;;;;;25.45;10.55;;;25.50;99.90;;;;;;5060883;28;20067;-73
2021/06/24 03:49:29;;;;;;;22.70;11.32;;;25.60;99.90;;;;;;5062359;28;20048;-75
2021/06/24 03:51:55;;;;;;;24.75;10.27;;;25.60;99.90;;;;;;5060763;28;20043;-74
2021/06/24 03:54:21;;;;;;;30.98;10.55;;;25.50;99.90;;;;;;5061290;28;20362;-74
2021/06/24 03:56:47;;;;;;;25.80;10.55;;;25.60;99.90;;;;;;5061687;28;20009;-75
2021/06/24 03:59:13;;;;;;;25.10;9.93;;;25.50;99.90;;;;;;5060234;28;20021;-74
2021/06/24 04:01:42;;;;;;;28.42;10.43;;;25.70;99.90;;;;;;5062327;28;20494;-74
2021/06/24 04:04:11;;;;;;;31.48;10.10;;;25.70;99.90;;;;;;5061409;28;20005;-75
2021/06/24 04:06:37;;;;;;;22.60;9.93;;;25.80;99.90;;;;;;5061421;28;20052;-74
2021/06/24 04:09:05;;;;;;;26.98;10.68;;;25.90;99.90;;;;;;5061779;28;20107;-73
2021/06/24 04:11:31;;;;;;;28.35;10.35;;;26.00;99.90;;;;;;5061196;28;20021;-75
2021/06/24 04:13:57;;;;;;;25.27;11.25;;;26.00;99.90;;;;;;5060629;28;20052;-74
2021/06/24 04:16:23;;;;;;;28.08;11.63;;;26.00;99.90;;;;;;5061014;28;20041;-75
2021/06/24 04:18:49;;;;;;;25.88;10.70;;;25.90;99.90;;;;;;5060914;28;20032;-74
2021/06/24 04:21:15;;;;;;;34.05;11.10;;;25.70;99.90;;;;;;5060566;28;20017;-72
2021/06/24 04:23:41;;;;;;;31.35;10.48;;;25.70;99.90;;;;;;5059560;28;20375;-74
2021/06/24 04:26:07;;;;;;;25.70;10.65;;;25.90;99.90;;;;;;5060611;28;20025;-72
2021/06/24 04:28:33;;;;;;;26.23;10.60;;;25.90;99.90;;;;;;5060591;28;20025;-74
2021/06/24 04:30:59;;;;;;;29.00;10.90;;;26.00;99.90;;;;;;5060700;28;20012;-73
2021/06/24 04:33:25;;;;;;;24.52;10.40;;;26.00;99.90;;;;;;5058077;28;20021;-74
2021/06/24 04:35:51;;;;;;;28.65;11.15;;;26.10;99.90;;;;;;5060484;28;20056;-73
2021/06/24 04:38:17;;;;;;;26.90;11.80;;;26.20;99.90;;;;;;5061289;28;20530;-72
2021/06/24 04:40:43;;;;;;;29.08;11.20;;;26.10;99.90;;;;;;5059356;28;20483;-73
2021/06/24 04:43:10;;;;;;;24.77;10.88;;;25.90;99.90;;;;;;5060227;28;20052;-73
2021/06/24 04:45:36;;;;;;;32.13;11.70;;;26.00;99.90;;;;;;5060622;28;20039;-74
2021/06/24 04:48:02;;;;;;;28.83;10.40;;;26.20;99.90;;;;;;5060533;28;20527;-73
2021/06/24 04:50:28;;;;;;;24.42;11.20;;;26.10;99.90;;;;;;5058585;28;20017;-73
2021/06/24 04:52:54;;;;;;;30.05;12.10;;;26.30;99.90;;;;;;5060149;28;20032;-73
2021/06/24 04:55:21;;;;;;;27.98;11.52;;;26.40;99.90;;;;;;5061723;28;20021;-73
2021/06/24 04:57:47;;;;;;;31.33;12.85;;;26.30;99.90;;;;;;5060238;28;20032;-72
2021/06/24 05:00:14;;;;;;;34.95;12.73;;;26.10;99.90;;;;;;5060266;28;20025;-73
2021/06/24 05:02:40;;;;;;;31.05;16.77;;;26.00;99.90;;;;;;5061497;28;20028;-74
2021/06/24 05:05:08;;;;;;;36.83;19.83;;;26.20;99.90;;;;;;5060657;28;20025;-73
2021/06/24 05:07:38;;;;;;;36.72;19.75;;;26.30;99.90;;;;;;5059068;28;20434;-73
2021/06/24 05:10:06;;;;;;;45.40;26.40;;;26.50;99.90;;;;;;5060668;28;20124;-72
2021/06/24 05:12:32;;;;;;;46.13;22.58;;;26.50;99.90;;;;;;5060458;28;20356;-72
2021/06/24 05:15:00;;;;;;;37.80;21.13;;;26.60;99.90;;;;;;5060976;28;20040;-75
2021/06/24 05:17:26;;;;;;;40.53;19.23;;;26.60;99.90;;;;;;5058563;28;20147;-73
2021/06/24 05:19:52;;;;;;;37.45;19.52;;;26.70;99.90;;;;;;5058941;28;20514;-72
2021/06/24 05:22:18;;;;;;;38.53;16.23;;;26.80;99.90;;;;;;5060676;28;20021;-73
2021/06/24 05:24:44;;;;;;;33.42;16.50;;;27.00;99.90;;;;;;5056400;28;20352;-73
2021/06/24 05:27:10;;;;;;;36.35;17.42;;;27.20;99.90;;;;;;5059475;28;20108;-73
2021/06/24 05:29:36;;;;;;;37.88;18.20;;;27.40;99.90;;;;;;5060984;28;20025;-73
2021/06/24 05:32:04;;;;;;;37.83;16.83;;;27.20;99.90;;;;;;5056057;28;20418;-73
2021/06/24 05:34:32;;;;;;;33.47;15.18;;;27.20;99.90;;;;;;5060077;28;20013;-74
2021/06/24 05:37:00;;;;;;;26.48;12.60;;;27.20;99.90;;;;;;5055971;28;20089;-71
2021/06/24 05:39:27;;;;;;;31.33;13.02;;;27.30;99.90;;;;;;5059776;28;20051;-75
2021/06/24 05:41:56;;;;;;;25.67;13.23;;;27.30;99.90;;;;;;5060052;28;20006;-74
2021/06/24 05:44:24;;;;;;;26.58;12.27;;;27.50;99.90;;;;;;5060746;28;20179;-73
2021/06/24 05:46:50;;;;;;;28.00;12.70;;;27.80;99.90;;;;;;5060994;28;20028;-75
2021/06/24 05:49:17;;;;;;;25.85;12.05;;;28.00;99.90;;;;;;5060439;28;20028;-73
2021/06/24 05:51:43;;;;;;;30.67;13.63;;;28.10;99.90;;;;;;5060836;28;20463;-73
2021/06/24 05:54:09;;;;;;;32.47;13.30;;;28.00;99.90;;;;;;5060522;28;20530;-73
2021/06/24 05:56:35;;;;;;;32.60;12.95;;;28.00;99.90;;;;;;5061843;28;20021;-73
2021/06/24 05:59:03;;;;;;;30.80;12.10;;;28.30;99.90;;;;;;5062927;28;20075;-72
2021/06/24 06:01:30;;;;;;;29.75;11.60;;;28.40;99.90;;;;;;5063574;28;20033;-72
2021/06/24 06:03:56;;;;;;;32.70;11.30;;;28.70;99.90;;;;;;5064606;28;20135;-72
2021/06/24 06:06:22;;;;;;;30.67;12.35;;;28.90;99.90;;;;;;5063403;28;20467;-72
2021/06/24 06:08:48;;;;;;;29.73;11.38;;;28.90;99.90;;;;;;5063656;28;20029;-73
2021/06/24 06:11:14;;;;;;;38.00;12.60;;;28.90;99.90;;;;;;5063038;28;20013;-72
2021/06/24 06:13:40;;;;;;;32.00;11.90;;;28.70;99.90;;;;;;5062770;28;20005;-71
2021/06/24 06:16:06;;;;;;;36.63;11.95;;;28.50;99.90;;;;;;5062860;28;20392;-72
2021/06/24 06:18:32;;;;;;;29.08;11.35;;;28.50;99.90;;;;;;5063913;28;20113;-72
2021/06/24 06:20:59;;;;;;;65.93;13.43;;;28.50;99.90;;;;;;5063189;28;20471;-71
2021/06/24 06:23:27;;;;;;;34.47;11.27;;;28.60;99.90;;;;;;5064319;28;20029;-73
2021/06/24 06:25:54;;;;;;;38.47;12.90;;;28.60;99.90;;;;;;5063083;28;20028;-74
2021/06/24 06:28:21;;;;;;;39.65;11.20;;;28.80;99.90;;;;;;5059450;28;20045;-73
2021/06/24 06:30:49;;;;;;;28.95;10.35;;;29.10;99.90;;;;;;5062516;28;20383;-75
2021/06/24 06:33:17;;;;;;;35.30;10.68;;;29.40;99.90;;;;;;5061164;28;20021;-74
2021/06/24 06:35:44;;;;;;;29.98;10.77;;;29.40;99.90;;;;;;5061108;28;20410;-73
2021/06/24 06:38:10;;;;;;;35.38;10.60;;;29.50;99.60;;;;;;5063155;28;20029;-73
2021/06/24 06:40:36;;;;;;;27.77;10.35;;;29.60;99.90;;;;;;5061487;28;20044;-70
2021/06/24 06:43:02;;;;;;;24.90;10.18;;;29.90;99.90;;;;;;5061194;28;20053;-75
2021/06/24 06:45:30;;;;;;;25.88;9.77;;;30.00;99.30;;;;;;5063168;28;20040;-72
2021/06/24 06:47:57;;;;;;;25.83;10.35;;;30.10;99.90;;;;;;5060790;28;20036;-71
2021/06/24 06:50:23;;;;;;;27.27;10.25;;;30.20;99.90;;;;;;5061905;28;20040;-71
2021/06/24 06:52:49;;;;;;;32.03;10.52;;;30.20;99.10;;;;;;5061658;28;20503;-73
2021/06/24 06:55:15;;;;;;;37.33;10.00;;;30.20;99.30;;;;;;5057243;28;20013;-73
2021/06/24 06:57:41;;;;;;;27.77;10.55;;;30.30;98.90;;;;;;5057494;28;20079;-72
2021/06/24 07:00:10;;;;;;;31.02;10.75;;;30.20;98.70;;;;;;5059445;28;20027;-71
2021/06/24 07:02:36;;;;;;;28.05;10.57;;;30.20;99.90;;;;;;5061190;28;20017;-76
2021/06/24 07:05:03;;;;;;;26.83;10.27;;;30.30;99.90;;;;;;5062210;28;20025;-74
2021/06/24 07:07:29;;;;;;;26.08;9.82;;;30.50;98.80;;;;;;5061207;28;20052;-75
2021/06/24 07:09:55;;;;;;;34.15;11.02;;;30.60;99.40;;;;;;5063032;28;20032;-75
2021/06/24 07:12:21;;;;;;;30.02;10.18;;;30.60;99.90;;;;;;5061935;28;20021;-74
2021/06/24 07:14:48;;;;;;;29.67;9.07;;;30.50;98.00;;;;;;5060876;28;20367;-75
2021/06/24 07:17:14;;;;;;;31.20;9.73;;;30.50;97.50;;;;;;5060812;28;20360;-72
2021/06/24 07:19:40;;;;;;;26.70;9.70;;;30.30;97.50;;;;;;5058568;28;20021;-72
2021/06/24 07:22:06;;;;;;;29.42;8.98;;;30.40;97.70;;;;;;5056854;28;20017;-74
2021/06/24 07:24:32;;;;;;;31.17;10.10;;;30.70;97.30;;;;;;5058560;28;20553;-71
2021/06/24 07:26:58;;;;;;;28.55;9.43;;;30.80;98.90;;;;;;5065709;28;20021;-71
2021/06/24 07:29:24;;;;;;;29.77;8.98;;;31.20;96.90;;;;;;5071598;28;20096;-71
2021/06/24 07:31:50;;;;;;;30.27;10.52;;;31.00;96.60;;;;;;5080187;28;20138;-72
2021/06/24 07:34:16;;;;;;;27.63;10.27;;;31.20;96.90;;;;;;5074714;28;20423;-73
2021/06/24 07:36:42;;;;;;;33.50;10.07;;;31.50;96.60;;;;;;5076030;28;20216;-73
2021/06/24 07:39:08;;;;;;;23.33;9.20;;;31.50;96.80;;;;;;5079396;28;20055;-72
2021/06/24 07:41:34;;;;;;;31.48;10.05;;;31.50;96.30;;;;;;5079649;28;20562;-71
2021/06/24 07:44:00;;;;;;;29.80;9.75;;;31.60;96.70;;;;;;5078774;28;20055;-71
2021/06/24 07:46:27;;;;;;;24.02;9.20;;;31.70;96.00;;;;;;5078616;28;20020;-72
2021/06/24 07:48:53;;;;;;;23.75;8.70;;;;;;;;;;5081944;28;20025;-72
2021/06/24 07:51:19;;;;;;;30.80;9.70;;;32.40;96.70;;;;;;5080583;28;20055;-74
2021/06/24 07:53:45;;;;;;;31.38;8.90;;;32.50;95.20;;;;;;5082114;28;20016;-71
2021/06/24 07:56:13;;;;;;;25.67;8.57;;;32.40;93.50;;;;;;5085760;28;20016;-71
2021/06/24 07:58:39;;;;;;;28.13;7.80;;;32.40;92.90;;;;;;5086206;28;20021;-72
2021/06/24 08:01:06;;;;;;;33.28;8.02;;;32.50;92.00;;;;;;5086616;28;20016;-71
2021/06/24 08:03:34;;;;;;;34.15;8.05;;;32.70;91.70;;;;;;5087026;28;20020;-73
2021/06/24 08:06:04;;;;;;;28.00;7.85;;;32.70;90.30;;;;;;5086259;28;20088;-71
2021/06/24 08:08:30;;;;;;;30.40;7.63;;;32.70;91.70;;;;;;5080266;28;20044;-70
2021/06/24 08:10:56;;;;;;;31.35;7.93;;;32.90;91.00;;;;;;5088655;28;20028;-70
2021/06/24 08:13:24;;;;;;;21.27;6.88;;;33.10;90.80;;;;;;5087516;28;20418;-70
2021/06/24 08:15:51;;;;;;;30.30;7.68;;;33.10;90.10;;;;;;5092512;28;20021;-71
2021/06/24 08:18:18;;;;;;;23.10;7.10;;;33.10;88.50;;;;;;5081777;28;20033;-71
2021/06/24 08:20:44;;;;;;;32.88;7.95;;;33.20;90.20;;;;;;5092007;28;20029;-70
2021/06/24 08:23:10;;;;;;;27.02;7.55;;;33.30;88.20;;;;;;5083996;28;20005;-71
2021/06/24 08:25:36;;;;;;;25.45;7.43;;;33.50;89.00;;;;;;5089214;28;20036;-71
2021/06/24 08:28:02;;;;;;;26.05;8.25;;;33.30;87.70;;;;;;5089989;28;20433;-71
2021/06/24 08:30:29;;;;;;;28.10;7.35;;;33.30;89.10;;;;;;5087815;28;20004;-70
2021/06/24 08:32:55;;;;;;;32.08;8.07;;;33.50;91.00;;;;;;5091122;28;20020;-70
2021/06/24 08:35:21;;;;;;;34.13;8.13;;;33.60;90.20;;;;;;5087299;28;20021;-72
2021/06/24 08:37:47;;;;;;;32.50;8.52;;;33.80;90.20;;;;;;5083358;28;20015;-72
2021/06/24 08:40:15;;;;;;;32.35;7.75;;;33.80;89.60;;;;;;5086319;28;20455;-72
2021/06/24 08:42:41;;;;;;;38.25;7.85;;;34.10;87.70;;;;;;5084390;28;20041;-73
2021/06/24 08:45:09;;;;;;;41.40;8.30;;;34.30;92.80;;;;;;5087623;28;20011;-73
2021/06/24 08:47:36;;;;;;;38.25;8.20;;;34.30;85.90;;;;;;5084284;28;20032;-72
2021/06/24 08:50:03;;;;;;;34.47;7.97;;;34.30;86.90;;;;;;5084775;28;20478;-72
2021/06/24 08:52:29;;;;;;;29.80;8.07;;;34.50;88.90;;;;;;5085945;28;20172;-71
2021/06/24 08:54:55;;;;;;;29.42;8.40;;;34.60;87.50;;;;;;5087196;28;20012;-71
2021/06/24 08:57:21;;;;;;;32.50;8.48;;;34.90;88.70;;;;;;5081085;28;20020;-71
2021/06/24 08:59:50;;;;;;;34.25;8.38;;;35.20;89.00;;;;;;5078448;28;20052;-72
2021/06/24 09:02:17;;;;;;;29.02;8.45;;;34.90;87.50;;;;;;5075974;28;20402;-71
2021/06/24 09:04:49;;;;;;;34.10;7.53;;;35.00;86.50;;;;;;5080410;28;20019;-72
2021/06/24 09:07:21;;;;;;;34.78;7.70;;;35.30;90.60;;;;;;5080698;28;20035;-71
2021/06/24 09:09:54;;;;;;;31.50;8.23;;;35.40;85.70;;;;;;5080260;28;20032;-70
2021/06/24 09:12:21;;;;;;;29.10;8.40;;;35.60;86.90;;;;;;5083617;28;20083;-71
2021/06/24 09:14:49;;;;;;;29.05;7.53;;;35.50;81.70;;;;;;5083533;28;20242;-71
2021/06/24 09:17:39;;;;;;;28.67;7.13;;;35.60;84.60;;;;;;5084788;28;20012;-71
2021/06/24 09:20:26;;;;;;;34.65;8.18;;;35.90;85.00;;;;;;5076697;28;20059;-72
2021/06/24 09:23:12;;;;;;;35.90;7.82;;;35.80;82.00;;;;;;5079022;28;20401;-72
2021/06/24 09:25:41;;;;;;;34.13;7.57;;;36.10;84.40;;;;;;5082217;28;20075;-72
2021/06/24 09:28:09;;;;;;;34.25;7.80;;;36.20;79.00;;;;;;5086555;28;20008;-71
2021/06/24 09:30:36;;;;;;;30.33;7.65;;;36.30;82.30;;;;;;5087549;28;20025;-73
2021/06/24 09:33:17;;;;;;;34.38;8.60;;;36.50;83.80;;;;;;5088475;28;20075;-72
2021/06/24 09:35:54;;;;;;;32.97;7.68;;;36.30;81.80;;;;;;5090801;28;20020;-72
2021/06/24 09:38:20;;;;;;;35.35;7.95;;;36.50;84.80;;;;;;5091417;28;20001;-71
2021/06/24 09:40:49;;;;;;;30.40;7.90;;;36.40;78.10;;;;;;5091188;28;20031;-71
2021/06/24 09:43:27;;;;;;;39.75;7.63;;;36.50;78.40;;;;;;5087855;28;20039;-72
2021/06/24 09:46:14;;;;;;;33.20;7.45;;;36.60;79.40;;;;;;5087499;28;20025;-72
2021/06/24 09:48:52;;;;;;;30.13;7.10;;;36.60;75.60;;;;;;5092081;28;20017;-72
2021/06/24 09:51:21;;;;;;;31.58;7.45;;;36.70;77.30;;;;;;5090940;28;20016;-72
2021/06/24 09:54:01;;;;;;;33.78;8.25;;;36.60;74.20;;;;;;5089665;28;20021;-74
2021/06/24 09:56:32;;;;;;;37.13;7.35;;;37.00;77.50;;;;;;5092054;28;20463;-72
2021/06/24 09:59:07;;;;;;;31.88;6.95;;;37.00;72.30;;;;;;5091362;28;20043;-73
2021/06/24 10:01:43;;;;;;;26.38;7.55;;;37.20;72.10;;;;;;5090368;28;20031;-73
2021/06/24 10:04:31;;;;;;;31.30;7.63;;;37.30;73.90;;;;;;5088892;28;20103;-73
2021/06/24 10:07:00;;;;;;;44.53;7.65;;;36.90;75.20;;;;;;5089490;28;20028;-73
2021/06/24 10:09:27;;;;;;;37.03;8.27;;;37.20;75.70;;;;;;5087721;28;20025;-73
2021/06/24 10:11:54;;;;;;;31.63;7.82;;;37.40;74.90;;;;;;5081866;28;20028;-71
2021/06/24 10:14:21;;;;;;;28.30;7.55;;;37.40;72.30;;;;;;5064349;28;20387;-71
2021/06/24 10:16:52;;;;;;;36.95;8.10;;;37.60;74.60;;;;;;5063323;28;20348;-74
2021/06/24 10:19:30;;;;;;;34.60;7.93;;;37.60;69.30;;;;;;5062053;28;20009;-73
2021/06/24 10:22:22;;;;;;;32.78;7.32;;;37.90;69.60;;;;;;5062121;28;20082;-70
2021/06/24 10:25:12;;;;;;;34.63;7.40;;;38.20;72.00;;;;;;5063894;28;20120;-73
2021/06/24 10:27:42;;;;;;;25.33;7.75;;;38.30;71.30;;;;;;5063351;28;20040;-72
2021/06/24 10:30:09;;;;;;;36.80;8.40;;;38.40;72.00;;;;;;5063313;28;20032;-73
2021/06/24 10:32:36;;;;;;;35.53;7.75;;;38.50;72.10;;;;;;5062845;28;20013;-73
2021/06/24 10:35:08;;;;;;;34.58;7.63;;;38.40;69.50;;;;;;5060198;28;20025;-72
2021/06/24 10:37:35;;;;;;;41.53;7.72;;;38.60;70.70;;;;;;5057686;28;20021;-71
2021/06/24 10:40:23;;;;;;;36.75;7.78;;;38.70;68.90;;;;;;5059586;28;20032;-71
2021/06/24 10:42:54;;;;;;;45.15;12.00;;;38.70;62.50;;;;;;5057858;28;20066;-72
2021/06/24 10:45:21;;;;;;;40.40;9.05;;;38.80;67.20;;;;;;5057613;28;20025;-72
2021/06/24 10:47:48;;;;;;;36.33;7.93;;;38.40;64.60;;;;;;5063952;28;20022;-73
2021/06/24 10:50:29;;;;;;;37.97;7.38;;;38.80;69.50;;;;;;5060954;28;20079;-71
2021/06/24 10:52:57;;;;;;;35.92;7.47;;;38.90;69.20;;;;;;5058598;28;20005;-74
2021/06/24 10:55:40;;;;;;;31.05;7.72;;;39.00;66.50;;;;;;5059409;28;20025;-72
2021/06/24 10:58:34;;;;;;;37.05;7.00;;;39.10;67.30;;;;;;5057358;28;20032;-72
2021/06/24 11:01:01;;;;;;;37.67;6.88;;;39.20;66.10;;;;;;5055652;28;20029;-73
2021/06/24 11:03:32;;;;;;;37.85;7.85;;;39.00;64.40;;;;;;5054821;28;20031;-71
2021/06/24 11:06:12;;;;;;;36.28;7.65;;;39.10;62.80;;;;;;5056744;28;20451;-73
2021/06/24 11:08:41;;;;;;;36.65;7.50;;;39.10;66.90;;;;;;5058634;28;20029;-73
2021/06/24 11:11:12;;;;;;;35.55;7.75;;;39.30;67.40;;;;;;5056933;28;20024;-74
2021/06/24 11:13:41;;;;;;;40.20;7.50;;;39.20;66.00;;;;;;5057715;28;20203;-74
2021/06/24 11:16:13;;;;;;;33.50;7.55;;;39.20;63.80;;;;;;5058440;28;20387;-74
2021/06/24 11:18:44;;;;;;;38.97;7.85;;;38.90;62.50;;;;;;5059463;28;20060;-74
2021/06/24 11:21:13;;;;;;;39.15;8.05;;;39.20;66.90;;;;;;5059927;28;20028;-75
2021/06/24 11:23:48;;;;;;;31.92;8.32;;;38.60;61.00;;;;;;5058110;28;20035;-73
2021/06/24 11:26:17;;;;;;;27.92;7.20;;;38.80;66.60;;;;;;5058007;28;20037;-74
2021/06/24 11:29:01;;;;;;;36.55;7.60;;;39.10;64.90;;;;;;5056712;28;20475;-73
2021/06/24 11:31:37;;;;;;;38.10;7.55;;;39.00;63.10;;;;;;5055800;28;20032;-74
2021/06/24 11:34:22;;;;;;;41.78;8.48;;;39.30;64.20;;;;;;5058403;28;20025;-72
2021/06/24 11:36:54;;;;;;;34.85;8.05;;;39.20;59.80;;;;;;5061423;28;20462;-73
2021/06/24 11:39:36;;;;;;;38.35;8.52;;;39.40;60.00;;;;;;5060930;28;20045;-73
2021/06/24 11:42:07;;;;;;;38.05;7.25;;;39.30;60.70;;;;;;5059651;28;20036;-75
2021/06/24 11:44:37;;;;;;;33.17;7.45;;;39.40;66.90;;;;;;5060179;28;20056;-74
2021/06/24 11:47:11;;;;;;;35.90;7.68;;;39.30;65.60;;;;;;5061048;28;20090;-74
2021/06/24 12:04:03;;;;;;;33.50;7.28;;;39.40;64.40;;;;;;5062342;28;20396;-74
2021/06/24 12:07:00;;;;;;;33.00;7.75;;;39.70;61.60;;;;;;5060848;28;20455;-74
2021/06/24 12:09:49;;;;;;;34.28;7.30;;;39.80;64.70;;;;;;5057502;28;20086;-74
2021/06/24 12:12:19;;;;;;;35.53;8.00;;;40.00;64.40;;;;;;5058032;28;20025;-73
2021/06/24 12:14:46;;;;;;;40.22;7.22;;;40.10;65.10;;;;;;5059373;28;20064;-73
2021/06/24 12:17:20;;;;;;;38.58;7.72;;;40.20;62.20;;;;;;5058049;28;20122;-75
2021/06/24 12:19:55;;;;;;;34.38;7.43;;;40.20;62.60;;;;;;5055592;28;20029;-76
2021/06/24 12:22:38;;;;;;;36.80;7.32;;;40.30;63.70;;;;;;5055572;28;20035;-74
2021/06/24 12:25:08;;;;;;;40.60;7.68;;;40.20;62.40;;;;;;5056656;28;20471;-74
2021/06/24 12:27:36;;;;;;;38.83;7.47;;;40.30;63.00;;;;;;5059830;28;20383;-74
2021/06/24 12:30:24;;;;;;;40.47;8.32;;;40.00;62.40;;;;;;5061046;28;20052;-74
2021/06/24 12:32:58;;;;;;;38.75;7.72;;;39.90;61.80;;;;;;5061195;28;20013;-72
2021/06/24 12:35:31;;;;;;;42.38;8.50;;;39.70;62.40;;;;;;5057093;28;20490;-71
2021/06/24 12:38:11;;;;;;;39.35;8.05;;;39.80;58.90;;;;;;5060365;28;20027;-72
2021/06/24 12:40:50;;;;;;;45.70;8.73;;;39.60;57.00;;;;;;5060049;28;20036;-72
2021/06/24 12:43:25;;;;;;;42.72;8.10;;;39.60;56.00;;;;;;5044735;28;20045;-70
2021/06/24 12:45:54;;;;;;;34.95;7.95;;;39.40;56.80;;;;;;5065654;28;20056;-71
2021/06/24 12:48:28;;;;;;;43.15;8.30;;;39.40;57.60;;;;;;5037589;28;20017;-71
2021/06/24 12:51:21;;;;;;;42.00;8.27;;;39.70;58.90;;;;;;5035182;28;20032;-75
2021/06/24 12:53:51;;;;;;;41.22;7.82;;;39.70;55.00;;;;;;5038189;28;20024;-75
2021/06/24 12:56:25;;;;;;;42.20;8.18;;;39.70;56.20;;;;;;5038113;28;20041;-73